Aérodrome :
LOGIN :

S'inscrire | Disclaimer

   EN    FR    IT 

 










Légende :    VFR   VFR Marginal   IFR   IFR Intensif   IFR Très Intensif
Visi : 
Plafond : 
>= 8 km
>= 3000ft
5 à 8 km
1000 à 3000 ft
1500m à 5 km
500 à 1000 ft
800 à 1500m
200 à 500 ft
< 800m
< 200 ft
Symboles :   Orages  Brouillard  Fortes neiges  Fortes précipitations  Vent > 20 kt
SIGMETs :   Divers  Orages  Givrage  Turbulence  Onde Orograph.  Cendres Volcan.







- Altitude de l'aérodrome : 146 ft
- Code IATA : RKE


EKRK - Roskilde Tune

DERNIER METAR :
  • 190420Z AUTO 23004KT 4600NDV BR FEW013/// BKN042/// OVC050/// 05/04 Q1007

METARs EXPIRÉS :
  • 190350Z AUTO 23005KT 5000NDV SCT015/// BKN018/// OVC021/// 05/04 Q1008
  • 190320Z AUTO 24006KT 5000NDV FEW020/// SCT031/// BKN039/// 05/04 Q1008
  • 190250Z AUTO 23004KT 4300NDV BR SCT027/// BKN033/// BKN050/// 05/04 Q1008
  • 190220Z AUTO 21006KT 3600NDV BR SCT047/// BKN200/// 04/03 Q1009
  • 190150Z AUTO 20004KT 3600NDV BR FEW035/// BKN040/// BKN047/// 03/03 Q1009

TAF TAF EKRK
Valide du 19 à 03h jusqu'au 19 à 12h UTC


190223Z 1903/1912 22008KT 5000 BR BKN030
TEMPO 1903/1904 2000 BR
BECMG 1904/1906 4000 RADZ BR BKN006
BECMG 1906/1908 9999 NSW SCT020
TEMPO 1908/1912 25018G28KT SHRA BKN008 SCT020CB
Pas de NOTAMs connus pour ce terrain.



MET'MAP, la Météo Aéronautique d'un coup d'oeil ! - Copyright ORBIFLY Décembre 2007 - Disclaimer

ORBIFLY MET'MAP TEAM :

Programmation & Développement : Alexandra Zaïnal
Conception & Développement : Baudouin d'Aumeries
Co-Programmation & Développement : Marc-Olivier Méhu
Soutien technique & logistique : Manuel Goepfert

Contact : metmap@orbifly.com




SOURCES & CREDITS :

   NOAA